createdAt,value
2022-12-23T00:02:31.723Z,14.60
2022-12-23T00:05:05.796Z,14.40
2022-12-23T00:07:38.935Z,13.20
2022-12-23T00:10:12.059Z,13.65
2022-12-23T00:13:03.706Z,8.82
2022-12-23T00:15:36.183Z,12.90
2022-12-23T00:18:09.005Z,11.77
2022-12-23T00:20:41.523Z,12.20
2022-12-23T00:23:14.340Z,7.53
2022-12-23T00:25:46.911Z,12.57
2022-12-23T00:28:22.634Z,13.00
2022-12-23T00:30:59.852Z,13.35
2022-12-23T00:33:44.542Z,12.15
2022-12-23T00:36:23.339Z,9.90
2022-12-23T00:39:16.430Z,11.50
2022-12-23T00:42:07.733Z,10.80
2022-12-23T00:44:40.806Z,12.27
2022-12-23T00:47:33.258Z,13.02
2022-12-23T00:50:06.709Z,12.73
2022-12-23T00:52:39.217Z,11.70
2022-12-23T00:55:12.031Z,12.60
2022-12-23T00:57:44.513Z,12.45
2022-12-23T01:00:18.310Z,12.60
2022-12-23T01:03:09.503Z,13.35
2022-12-23T01:05:42.443Z,12.80
2022-12-23T01:08:14.934Z,11.75
2022-12-23T01:10:48.056Z,11.82
2022-12-23T01:13:21.365Z,12.73
2022-12-23T01:16:10.592Z,13.75
2022-12-23T01:18:47.763Z,11.73
2022-12-23T01:21:20.608Z,13.85
2022-12-23T01:23:53.175Z,12.73
2022-12-23T01:26:26.232Z,12.73
2022-12-23T01:28:59.369Z,9.45
2022-12-23T01:31:32.319Z,11.55
2022-12-23T01:34:05.141Z,11.50
2022-12-23T01:36:37.993Z,12.57
2022-12-23T01:39:10.558Z,13.30
2022-12-23T01:42:02.132Z,12.50
2022-12-23T01:45:01.553Z,13.05
2022-12-23T01:47:45.949Z,14.48
2022-12-23T01:50:21.193Z,12.20
2022-12-23T01:53:24.698Z,12.55
2022-12-23T01:56:05.781Z,13.73
2022-12-23T01:59:00.448Z,12.43
2022-12-23T02:01:51.424Z,12.45
2022-12-23T02:04:26.674Z,15.10
2022-12-23T02:07:17.898Z,14.18
2022-12-23T02:09:50.985Z,14.65
2022-12-23T02:12:38.827Z,13.38
2022-12-23T02:15:48.342Z,12.43
2022-12-23T02:18:58.124Z,13.52
2022-12-23T02:22:14.092Z,12.40
2022-12-23T02:25:24.395Z,13.90
2022-12-23T02:30:47.406Z,14.23
2022-12-23T02:33:43.858Z,13.90
2022-12-23T02:36:46.523Z,14.57
2022-12-23T02:39:32.215Z,13.77
2022-12-23T02:42:19.476Z,12.93
2022-12-23T02:45:27.008Z,14.65
2022-12-23T02:48:32.998Z,14.23
2022-12-23T02:51:09.517Z,13.32
2022-12-23T02:53:50.973Z,13.38
2022-12-23T02:56:27.084Z,14.23
2022-12-23T02:59:07.237Z,14.38
2022-12-23T03:01:41.344Z,12.90
2022-12-23T03:04:15.292Z,14.35
2022-12-23T03:06:54.436Z,12.05
2022-12-23T03:09:52.057Z,12.57
2022-12-23T03:12:30.142Z,12.57
2022-12-23T03:15:17.630Z,13.40
2022-12-23T03:17:59.408Z,12.88
2022-12-23T03:20:49.696Z,11.57
2022-12-23T03:28:49.328Z,10.93
2022-12-23T03:31:31.213Z,11.27
2022-12-23T03:34:08.699Z,11.95
2022-12-23T03:37:09.946Z,11.80
2022-12-23T03:39:54.877Z,11.75
2022-12-23T03:42:35.655Z,10.68
2022-12-23T03:48:13.698Z,10.85
2022-12-23T03:50:51.594Z,10.82
2022-12-23T03:53:30.164Z,11.75
2022-12-23T03:56:10.004Z,12.93
2022-12-23T03:59:20.048Z,12.27
2022-12-23T04:02:26.967Z,10.43
2022-12-23T04:05:24.544Z,10.82
2022-12-23T04:08:12.534Z,11.32
2022-12-23T04:10:45.530Z,11.32
2022-12-23T04:13:18.414Z,11.27
2022-12-23T04:15:50.942Z,11.23
2022-12-23T04:18:23.868Z,12.07
2022-12-23T04:20:56.496Z,11.35
2022-12-23T04:23:29.565Z,11.43
2022-12-23T04:26:02.144Z,11.00
2022-12-23T04:28:35.169Z,11.15
2022-12-23T04:31:07.701Z,10.27
2022-12-23T04:33:40.507Z,11.82
2022-12-23T04:36:13.053Z,11.05
2022-12-23T04:38:45.853Z,10.18
2022-12-23T04:41:18.396Z,10.25
2022-12-23T04:43:53.309Z,10.43
2022-12-23T04:46:26.037Z,11.40
2022-12-23T04:48:58.842Z,10.50
2022-12-23T04:51:31.395Z,10.90
2022-12-23T04:54:04.624Z,11.15
2022-12-23T04:56:37.212Z,11.60
2022-12-23T04:59:11.023Z,11.25
2022-12-23T05:01:43.835Z,10.10
2022-12-23T05:04:17.233Z,11.18
2022-12-23T05:06:49.817Z,11.02
2022-12-23T05:09:22.760Z,10.65
2022-12-23T05:11:55.441Z,10.75
2022-12-23T05:14:28.224Z,10.43
2022-12-23T05:17:06.917Z,10.75
2022-12-23T05:19:40.359Z,11.30
2022-12-23T05:22:12.917Z,10.77
2022-12-23T05:24:45.673Z,12.50
2022-12-23T05:27:18.258Z,12.45
2022-12-23T05:29:51.066Z,11.23
2022-12-23T05:32:23.551Z,11.27
2022-12-23T05:34:56.371Z,12.75
2022-12-23T05:37:28.917Z,14.73
2022-12-23T05:40:01.876Z,12.60
2022-12-23T05:42:34.791Z,12.35
2022-12-23T05:45:08.088Z,13.07
2022-12-23T05:47:40.579Z,11.43
2022-12-23T05:50:14.030Z,11.60
2022-12-23T05:52:46.541Z,13.52
2022-12-23T05:55:22.194Z,12.13
2022-12-23T05:57:54.723Z,13.20
2022-12-23T06:00:27.826Z,12.35
2022-12-23T06:03:00.453Z,13.15
2022-12-23T06:05:33.375Z,13.05
2022-12-23T06:08:06.117Z,12.57
2022-12-23T06:10:38.928Z,11.75
2022-12-23T06:13:11.483Z,13.02
2022-12-23T06:15:44.292Z,12.73
2022-12-23T06:18:16.911Z,12.98
2022-12-23T06:20:49.963Z,13.35
2022-12-23T06:23:22.462Z,13.13
2022-12-23T06:26:03.096Z,13.00
2022-12-23T06:31:08.262Z,12.23
2022-12-23T06:33:40.842Z,13.73
2022-12-23T06:36:13.657Z,12.70
2022-12-23T06:38:46.231Z,14.45
2022-12-23T06:41:19.016Z,13.40
2022-12-23T06:43:54.415Z,15.95
2022-12-23T06:46:27.654Z,13.60
2022-12-23T06:49:00.192Z,13.68
2022-12-23T06:51:33.135Z,12.15
2022-12-23T06:54:05.755Z,14.63
2022-12-23T06:56:39.102Z,13.60
2022-12-23T06:59:11.683Z,14.07
2022-12-23T07:01:44.790Z,15.27
2022-12-23T07:04:17.450Z,16.92
2022-12-23T07:06:50.254Z,16.08
2022-12-23T07:09:22.827Z,15.90
2022-12-23T07:11:55.899Z,17.48
2022-12-23T07:14:28.395Z,15.48
2022-12-23T07:17:01.311Z,16.63
2022-12-23T07:19:34.261Z,15.10
2022-12-23T07:22:07.368Z,14.40
2022-12-23T07:24:39.858Z,16.20
2022-12-23T07:27:13.185Z,17.20
2022-12-23T07:29:45.737Z,16.27
2022-12-23T07:32:18.802Z,17.05
2022-12-23T07:34:51.358Z,17.42
2022-12-23T07:37:24.184Z,15.82
2022-12-23T07:39:56.740Z,15.73
2022-12-23T07:42:46.560Z,17.60
2022-12-23T07:45:19.754Z,17.70
2022-12-23T07:47:56.734Z,17.08
2022-12-23T07:50:29.454Z,18.20
2022-12-23T07:53:02.269Z,18.33
2022-12-23T07:55:34.873Z,18.77
2022-12-23T07:58:08.493Z,18.05
2022-12-23T08:00:40.979Z,18.95
2022-12-23T08:03:14.204Z,19.00
2022-12-23T08:05:46.864Z,18.52
2022-12-23T08:08:19.650Z,17.50
2022-12-23T08:10:57.472Z,19.98
2022-12-23T08:13:34.213Z,17.58
2022-12-23T08:16:08.577Z,18.63
2022-12-23T08:18:42.617Z,18.35
2022-12-23T08:21:19.397Z,16.25
2022-12-23T08:23:52.236Z,20.38
2022-12-23T08:26:25.231Z,19.90
2022-12-23T08:28:58.114Z,18.67
2022-12-23T08:31:32.360Z,18.48
2022-12-23T08:34:05.276Z,18.88
2022-12-23T08:36:40.071Z,21.90
2022-12-23T08:39:12.949Z,19.42
2022-12-23T08:41:47.703Z,19.20
2022-12-23T08:44:22.236Z,20.20
2022-12-23T08:46:55.891Z,20.15
2022-12-23T08:49:28.773Z,19.88
2022-12-23T08:52:01.608Z,20.58
2022-12-23T08:54:34.422Z,19.48
2022-12-23T08:57:07.173Z,20.17
2022-12-23T08:59:40.089Z,19.05
2022-12-23T09:02:12.810Z,21.10
2022-12-23T09:04:45.730Z,19.30
2022-12-23T09:07:18.243Z,20.25
2022-12-23T09:09:51.105Z,20.60
2022-12-23T09:12:23.622Z,20.65
2022-12-23T09:14:56.415Z,20.80
2022-12-23T09:17:30.077Z,20.33
2022-12-23T09:20:03.256Z,19.58
2022-12-23T09:22:35.811Z,20.30
2022-12-23T09:25:08.984Z,20.58
2022-12-23T09:27:42.627Z,20.17
2022-12-23T09:30:15.538Z,20.92
2022-12-23T09:32:48.075Z,20.85
2022-12-23T09:35:20.930Z,18.27
2022-12-23T09:37:53.439Z,19.17
2022-12-23T09:40:30.644Z,20.55
2022-12-23T09:43:29.804Z,19.63
2022-12-23T09:46:13.105Z,21.07
2022-12-23T09:48:58.730Z,20.77
2022-12-23T09:51:33.244Z,20.33
2022-12-23T09:54:16.413Z,19.02
2022-12-23T09:56:58.799Z,20.95
2022-12-23T09:59:34.372Z,19.67
2022-12-23T10:02:29.482Z,20.08
2022-12-23T10:05:25.231Z,18.17
2022-12-23T10:08:31.657Z,17.75
2022-12-23T10:11:22.369Z,17.08
2022-12-23T10:14:03.558Z,16.75
2022-12-23T10:16:41.419Z,19.60
2022-12-23T10:19:42.080Z,17.67
2022-12-23T10:22:22.609Z,16.70
2022-12-23T10:24:57.716Z,18.38
2022-12-23T10:27:37.156Z,17.50
2022-12-23T10:30:57.411Z,19.20
2022-12-23T10:33:24.313Z,19.55
2022-12-23T10:36:31.047Z,18.42
2022-12-23T10:39:19.454Z,19.70
2022-12-23T10:42:16.816Z,20.27
2022-12-23T10:45:04.777Z,18.63
2022-12-23T10:47:57.952Z,21.25
2022-12-23T10:50:51.679Z,21.63
2022-12-23T10:53:35.717Z,22.65
2022-12-23T10:56:09.903Z,22.08
2022-12-23T10:58:46.165Z,26.13
2022-12-23T11:01:26.558Z,24.60
2022-12-23T11:04:07.573Z,23.38
2022-12-23T11:06:45.936Z,26.08
2022-12-23T11:09:23.592Z,24.20
2022-12-23T11:11:57.267Z,25.35
2022-12-23T11:14:34.193Z,30.25
2022-12-23T11:17:22.407Z,26.45
2022-12-23T11:20:18.871Z,25.88
2022-12-23T11:22:58.307Z,25.38
2022-12-23T11:25:34.026Z,27.02
2022-12-23T11:28:22.240Z,23.95
2022-12-23T11:31:08.547Z,25.23
2022-12-23T11:33:54.531Z,23.23
2022-12-23T11:36:29.459Z,21.80
2022-12-23T11:39:10.744Z,21.48
2022-12-23T11:41:44.819Z,22.10
2022-12-23T11:44:33.578Z,20.58
2022-12-23T11:47:19.995Z,23.50
2022-12-23T11:49:54.849Z,22.23
2022-12-23T11:52:30.358Z,22.85
2022-12-23T11:55:05.857Z,23.92
2022-12-23T11:57:44.796Z,22.45
2022-12-23T12:00:24.781Z,22.05
2022-12-23T12:03:00.754Z,20.10
2022-12-23T12:05:46.756Z,20.42
2022-12-23T12:08:27.036Z,21.77
2022-12-23T12:11:17.008Z,18.77
2022-12-23T12:13:57.346Z,20.08
2022-12-23T12:17:14.952Z,19.25
2022-12-23T12:19:59.409Z,19.80
2022-12-23T12:22:40.431Z,20.65
2022-12-23T12:25:22.271Z,18.70
2022-12-23T12:28:04.305Z,19.80
2022-12-23T12:30:57.608Z,19.40
2022-12-23T12:33:49.743Z,18.58
2022-12-23T12:36:47.714Z,18.67
2022-12-23T12:39:32.491Z,18.30
2022-12-23T12:42:29.729Z,19.67
2022-12-23T12:45:21.066Z,16.70
2022-12-23T12:48:21.179Z,17.33
2022-12-23T12:51:09.347Z,17.17
2022-12-23T12:53:53.620Z,20.27
2022-12-23T12:56:36.956Z,19.15
2022-12-23T12:59:19.636Z,17.98
2022-12-23T13:02:05.373Z,18.83
2022-12-23T13:05:11.002Z,17.10
2022-12-23T13:08:11.065Z,19.88
2022-12-23T13:13:25.351Z,18.52
2022-12-23T13:16:10.072Z,20.38
2022-12-23T13:18:47.411Z,23.23
2022-12-23T13:21:33.633Z,19.17
2022-12-23T13:24:22.432Z,22.85
2022-12-23T13:27:16.794Z,23.85
2022-12-23T13:30:03.252Z,23.75
2022-12-23T13:32:50.108Z,23.33
2022-12-23T13:35:30.420Z,24.20
2022-12-23T13:38:18.339Z,25.98
2022-12-23T13:41:15.487Z,23.88
2022-12-23T13:43:58.437Z,26.38
2022-12-23T13:46:59.885Z,25.27
2022-12-23T13:50:00.122Z,26.58
2022-12-23T13:52:55.892Z,26.90
2022-12-23T13:55:48.418Z,25.58
2022-12-23T13:58:23.806Z,31.35
2022-12-23T14:01:20.848Z,31.08
2022-12-23T14:03:53.428Z,29.08
2022-12-23T14:06:26.307Z,31.25
2022-12-23T14:08:58.904Z,30.35
2022-12-23T14:11:33.496Z,28.95
2022-12-23T14:14:15.944Z,29.10
2022-12-23T14:17:16.421Z,29.42
2022-12-23T14:20:07.888Z,31.35
2022-12-23T14:22:50.899Z,30.80
2022-12-23T14:25:50.120Z,27.83
2022-12-23T14:28:35.096Z,28.87
2022-12-23T14:31:37.467Z,27.70
2022-12-23T14:34:20.164Z,30.67
2022-12-23T14:37:14.493Z,32.00
2022-12-23T14:39:48.037Z,42.53
2022-12-23T14:42:49.811Z,26.83
2022-12-23T14:45:42.927Z,24.40
2022-12-23T14:48:35.022Z,22.63
2022-12-23T14:51:29.316Z,21.88
2022-12-23T14:54:15.185Z,21.25
2022-12-23T14:57:08.176Z,21.70
2022-12-23T15:00:02.028Z,22.92
2022-12-23T15:02:39.027Z,21.20
2022-12-23T15:05:13.085Z,21.85
2022-12-23T15:07:47.150Z,17.40
2022-12-23T15:10:23.999Z,16.67
2022-12-23T15:13:01.724Z,15.20
2022-12-23T15:15:34.705Z,14.38
2022-12-23T15:18:12.905Z,17.30
2022-12-23T15:20:45.597Z,19.45
2022-12-23T15:23:18.403Z,21.27
2022-12-23T15:25:51.485Z,15.75
2022-12-23T15:28:37.147Z,15.95
2022-12-23T15:31:43.313Z,14.52
2022-12-23T15:34:23.628Z,16.33
2022-12-23T15:36:56.396Z,16.00
2022-12-23T15:39:32.038Z,18.67
2022-12-23T15:42:05.104Z,17.85
2022-12-23T15:44:39.556Z,15.57
2022-12-23T15:47:36.368Z,15.85
2022-12-23T15:50:15.457Z,16.10
2022-12-23T15:52:50.387Z,17.77
2022-12-23T15:55:34.319Z,17.75
2022-12-23T15:58:07.031Z,17.75
2022-12-23T16:00:49.424Z,18.65
2022-12-23T16:03:38.956Z,17.35
2022-12-23T16:06:17.489Z,17.95
2022-12-23T16:08:58.338Z,19.77
2022-12-23T16:12:01.950Z,20.63
2022-12-23T16:14:38.334Z,20.65
2022-12-23T16:17:24.000Z,22.00
2022-12-23T16:20:20.104Z,20.57
2022-12-23T16:22:57.654Z,22.30
2022-12-23T16:25:36.980Z,23.30
2022-12-23T16:28:22.996Z,23.60
2022-12-23T16:30:58.402Z,23.33
2022-12-23T16:33:48.379Z,24.17
2022-12-23T16:36:26.574Z,23.45
2022-12-23T16:39:22.320Z,21.40
2022-12-23T16:41:54.933Z,23.90
2022-12-23T16:44:27.834Z,21.65
2022-12-23T16:47:07.903Z,22.58
2022-12-23T16:52:14.812Z,20.55
2022-12-23T16:54:47.720Z,25.33
2022-12-23T16:57:25.713Z,24.00
2022-12-23T16:59:58.684Z,23.70
2022-12-23T17:02:34.528Z,23.15
2022-12-23T17:05:07.996Z,24.15
2022-12-23T17:07:45.276Z,26.52
2022-12-23T17:10:18.934Z,25.10
2022-12-23T17:12:51.821Z,25.35
2022-12-23T17:15:26.056Z,22.30
2022-12-23T17:17:58.881Z,23.27
2022-12-23T17:20:31.755Z,22.83
2022-12-23T17:23:04.398Z,24.00
2022-12-23T17:25:37.176Z,22.35
2022-12-23T17:28:11.030Z,22.92
2022-12-23T17:30:44.006Z,25.23
2022-12-23T17:33:18.992Z,22.30
2022-12-23T17:35:51.830Z,22.17
2022-12-23T17:38:24.744Z,22.60
2022-12-23T17:41:01.258Z,23.13
2022-12-23T17:43:33.849Z,22.25
2022-12-23T17:46:09.672Z,22.42
2022-12-23T17:48:42.765Z,20.45
2022-12-23T17:51:18.095Z,23.15
2022-12-23T17:53:57.446Z,23.05
2022-12-23T17:56:31.264Z,24.08
2022-12-23T17:59:03.807Z,21.85
2022-12-23T18:01:37.202Z,22.63
2022-12-23T18:04:09.787Z,18.58
2022-12-23T18:06:46.004Z,21.92
2022-12-23T18:09:19.337Z,23.25
2022-12-23T18:11:52.107Z,23.15
2022-12-23T18:14:31.930Z,23.77
2022-12-23T18:17:04.813Z,24.63
2022-12-23T18:19:37.379Z,24.65
2022-12-23T18:22:19.835Z,23.48
2022-12-23T18:24:58.631Z,22.73
2022-12-23T18:27:32.099Z,31.13
2022-12-23T18:30:04.980Z,25.65
2022-12-23T18:32:40.779Z,24.70
2022-12-23T18:35:30.037Z,22.70
2022-12-23T18:38:02.883Z,23.97
2022-12-23T18:40:35.423Z,26.05
2022-12-23T18:43:20.914Z,21.25
2022-12-23T18:45:54.214Z,26.10
2022-12-23T18:48:27.289Z,26.67
2022-12-23T18:50:59.817Z,23.58
2022-12-23T18:53:32.683Z,25.88
2022-12-23T18:56:05.649Z,25.30
2022-12-23T18:58:38.490Z,24.65
2022-12-23T19:01:15.831Z,27.10
2022-12-23T19:03:48.688Z,25.88
2022-12-23T19:06:21.201Z,27.25
2022-12-23T19:08:54.238Z,23.55
2022-12-23T19:11:26.795Z,26.13
2022-12-23T19:13:59.734Z,24.92
2022-12-23T19:16:32.313Z,24.98
2022-12-23T19:19:05.266Z,26.58
2022-12-23T19:21:37.860Z,26.85
2022-12-23T19:24:11.004Z,23.40
2022-12-23T19:26:43.530Z,25.63
2022-12-23T19:29:16.380Z,23.70
2022-12-23T19:31:48.939Z,26.17
2022-12-23T19:34:21.754Z,25.13
2022-12-23T19:36:54.248Z,24.17
2022-12-23T19:39:27.130Z,24.75
2022-12-23T19:41:59.688Z,23.55
2022-12-23T19:44:32.892Z,24.55
2022-12-23T19:47:05.716Z,26.50
2022-12-23T19:49:38.614Z,19.33
2022-12-23T19:52:11.135Z,24.08
2022-12-23T19:54:44.058Z,25.23
2022-12-23T19:57:16.637Z,26.67
2022-12-23T19:59:49.471Z,24.60
2022-12-23T20:02:23.619Z,24.20
2022-12-23T20:04:56.561Z,24.98
2022-12-23T20:07:29.177Z,26.75
2022-12-23T20:10:02.206Z,26.45
2022-12-23T20:12:34.847Z,25.98
2022-12-23T20:15:08.299Z,24.23
2022-12-23T20:17:40.845Z,22.70
2022-12-23T20:20:13.780Z,22.58
2022-12-23T20:22:46.492Z,24.77
2022-12-23T20:25:19.281Z,25.33
2022-12-23T20:27:54.116Z,24.45
2022-12-23T20:30:27.880Z,23.10
2022-12-23T20:33:00.402Z,21.95
2022-12-23T20:35:33.166Z,23.90
2022-12-23T20:38:05.716Z,22.45
2022-12-23T20:40:38.529Z,24.88
2022-12-23T20:43:15.197Z,23.15
2022-12-23T20:45:50.895Z,27.10
2022-12-23T20:48:25.882Z,22.25
2022-12-23T20:51:12.091Z,24.55
2022-12-23T20:53:45.019Z,23.70
2022-12-23T20:56:20.091Z,24.23
2022-12-23T20:58:55.542Z,22.60
2022-12-23T21:01:39.114Z,23.80
2022-12-23T21:04:15.813Z,24.50
2022-12-23T21:06:49.036Z,23.25
2022-12-23T21:09:21.660Z,23.58
2022-12-23T21:11:54.906Z,23.15
2022-12-23T21:14:27.619Z,22.02
2022-12-23T21:17:00.472Z,23.40
2022-12-23T21:19:34.825Z,25.42
2022-12-23T21:22:08.374Z,25.45
2022-12-23T21:24:40.893Z,23.10
2022-12-23T21:27:13.768Z,22.10
2022-12-23T21:29:46.258Z,21.80
2022-12-23T21:32:19.173Z,22.38
2022-12-23T21:34:51.738Z,21.42
2022-12-23T21:37:24.598Z,22.95
2022-12-23T21:39:57.105Z,22.98
2022-12-23T21:42:29.987Z,21.13
2022-12-23T21:45:02.607Z,23.13
2022-12-23T21:47:36.363Z,20.67
2022-12-23T21:50:09.526Z,22.42
2022-12-23T21:52:42.496Z,21.08
2022-12-23T21:55:16.101Z,22.40
2022-12-23T21:57:48.897Z,21.48
2022-12-23T22:00:21.716Z,20.52
2022-12-23T22:02:54.539Z,22.25
2022-12-23T22:05:27.305Z,22.98
2022-12-23T22:08:00.731Z,22.90
2022-12-23T22:10:33.404Z,23.58
2022-12-23T22:13:06.284Z,24.67
2022-12-23T22:15:43.021Z,25.10
2022-12-23T22:18:16.668Z,20.75
2022-12-23T22:20:49.211Z,23.00
2022-12-23T22:23:22.008Z,22.45
2022-12-23T22:25:57.362Z,23.88
2022-12-23T22:28:32.289Z,22.67
2022-12-23T22:31:26.532Z,27.33
2022-12-23T22:34:02.077Z,23.92
2022-12-23T22:36:35.281Z,23.60
2022-12-23T22:39:08.352Z,23.92
2022-12-23T22:41:40.875Z,21.83
2022-12-23T22:44:13.782Z,21.65
2022-12-23T22:46:46.669Z,21.30
2022-12-23T22:49:20.165Z,20.98
2022-12-23T22:51:52.639Z,20.58
2022-12-23T22:54:25.455Z,18.95
2022-12-23T22:56:58.022Z,20.25
2022-12-23T22:59:30.797Z,22.48
2022-12-23T23:02:04.009Z,20.60
2022-12-23T23:04:37.125Z,20.35
2022-12-23T23:07:09.706Z,20.27
2022-12-23T23:09:42.924Z,20.30
2022-12-23T23:12:15.520Z,21.80
2022-12-23T23:14:54.384Z,18.33
2022-12-23T23:17:28.341Z,19.02
2022-12-23T23:20:01.170Z,21.30
2022-12-23T23:22:33.932Z,20.38
2022-12-23T23:25:07.378Z,18.65
2022-12-23T23:27:39.918Z,19.77
2022-12-23T23:30:12.891Z,20.50
2022-12-23T23:32:45.563Z,21.40
2022-12-23T23:35:18.440Z,20.85
2022-12-23T23:37:51.087Z,17.58
2022-12-23T23:40:24.030Z,19.95
2022-12-23T23:42:56.663Z,20.42
2022-12-23T23:45:30.299Z,19.17
2022-12-23T23:48:02.906Z,19.83
2022-12-23T23:50:35.715Z,20.13
2022-12-23T23:53:10.281Z,19.13
2022-12-23T23:55:43.375Z,21.30
2022-12-23T23:58:15.895Z,20.13
